KSFZ/SFZ METAR and TAF weather

Enter ICAO airport designator
Station Type Date Time Source
KSFZ METAR 2020/11/28 19:56 UTC NOAA

KSFZ 281956Z AUTO 30007KT 10SM FEW044 BKN080 OVC090 10/02 A2991 RMK AO2 SLP074 T01000022


Station Type Date Time Source
KSFZ Decoded METAR 2020/11/28 19:56 UTC NOAA

Pawtucket, North Central State Airport, RI, United States (KSFZ) 41-55N 071-30W
Nov 28, 2020 - 02:56 PM EST / 2020.11.28 1956 UTC
Wind: from the WNW (300 degrees) at 8 MPH (7 KT):0
Visibility: 10 mile(s):0
Sky conditions: overcast
Temperature: 50.0 F (10.0 C)
Dew Point: 36.0 F (2.2 C)
Relative Humidity: 58%
Pressure (altimeter): 29.91 in. Hg (1012 hPa)
ob: KSFZ 281956Z AUTO 30007KT 10SM FEW044 BKN080 OVC090 10/02 A2991 RMK AO2 SLP074 T01000022
cycle: 20

Station Type Date Time Source
KSFZ TAF UTC NOAA

Error!

Example: see airport list